Notice: Undefined index: name in /var/www/html/metar_load_funct.php on line 61

Notice: Undefined index: humidity_percent in /var/www/html/metar_load_funct.php on line 103
Weather34 Metar Aviation Weather Data Popup
19°C Temp
'.PHP_EOL;
17°C Dauwpunt
% Vochtigheid
Temperatuur
5 KM/H
3 MPH
3 KTS
220°
Zuid West

Wind Snelheid
Helder
Luchtdruk 1020.92 (hPa)- 30.15 (in)
Zicht 6.2 (mi) - 10 (km)

Huidig weer
EHLW
Locatie 30(km)
Metar:
EHLW 222025Z AUTO 22003KT 130V210 9999 NCD 19/17 Q1021 BLU

Notice: Undefined offset: 1 in /var/www/html/metar_popup.php on line 285

Notice: Undefined offset: 1 in /var/www/html/metar_popup.php on line 287

Warning: gmmktime() expects parameter 1 to be long, string given in /var/www/html/metar_popup.php on line 288
Thu 1st January 01:00 am

Vliegveld
  Metar Aviation API Data Provided by https://www.checkwx.com/